Falkirk, United Kingdom
Current Conditions -  °F | °C
As of 2:20 AM on Saturday 25 Oct 2014 (Local Time) from EGPH Reporting Station
Broken Clouds Broken Clouds  
Wind Chill: 42°   Ceiling: 4600
Heat Index: 48°   Visibility: 6mi
Dew Point: 45°   Wind: 16mph
Humidity: 87%   Direction: 230°SW
Pressure: 29.71"   Gusts: NA
Location:  56°N, 3.78°W
Report Text: EGPH 250120Z 23014KT 9999 FEW022 BKN046 09/07 Q1006
Loading
Personal Weather Stations






























Interactive Weather Map
Tropical Storm Tracking
New forecast layout! Learn more

10-Day Weather Forecast

Advertisements
Track Severe Weather on mobile